New Diana, Texas
Current Conditions -  °F | °C
As of 9:53 AM on Wednesday 26 Nov 2014 (Local Time) from KGGG Reporting Station
Clear Clear  
Wind Chill: 57°   Ceiling: Unl
Heat Index: 57°   Visibility: 10mi
Dew Point: 32°   Wind: 15mph
Humidity: 39%   Direction: 240°WSW
Pressure: 30.13"   Gusts: 21mph
Location:  32.6998°N, 94.6696°W
Report Text: KGGG 261553Z 24013G18KT 10SM CLR 14/00 A3013 RMK AO2 SLP204 T01390000
Loading
Personal Weather Stations






























Interactive Weather Map New forecast layout! Learn more

10-Day Weather Forecast

Advertisements
Track Severe Weather on mobile